Time;durP1;ratioP1;P1;durP2;ratioP2;P2;SDS_P1;SDS_P2;PMS_P1;PMS_P2;Temp;Humidity;BMP_temperature;BMP_pressure;BME280_temperature;BME280_humidity;BME280_pressure;Samples;Min_cycle;Max_cycle;Signal;HPM_P1;HPM_P2
2023/06/17 00:02:20;;;;;;;4.65;4.10;;;;;;;19.85;65.29;101022.22;5030147;27;99179;-68
2023/06/17 00:04:47;;;;;;;5.07;4.38;;;;;;;19.95;65.73;101032.31;5030128;27;97662;-67
2023/06/17 00:07:13;;;;;;;5.18;4.20;;;;;;;20.11;64.70;101023.06;5030525;27;96803;-68
2023/06/17 00:09:41;;;;;;;9.30;8.00;;;;;;;20.10;64.39;101026.72;5033141;27;97652;-67
2023/06/17 00:12:09;;;;;;;8.43;5.80;;;;;;;20.19;63.80;101017.16;5028660;27;97622;-67
2023/06/17 00:14:36;;;;;;;7.05;5.03;;;;;;;20.05;65.15;101017.28;5038013;27;96746;-68
2023/06/17 00:17:08;;;;;;;7.03;5.13;;;;;;;20.24;63.66;101010.50;5029647;27;96957;-68
2023/06/17 00:19:36;;;;;;;4.65;3.83;;;;;;;20.42;63.90;101010.16;5032260;27;98968;-67
2023/06/17 00:22:02;;;;;;;6.72;4.82;;;;;;;20.27;63.13;101010.28;5024907;27;99168;-67
2023/06/17 00:24:30;;;;;;;6.45;4.47;;;;;;;20.19;63.60;101003.75;5032992;27;96863;-68
2023/06/17 00:26:56;;;;;;;5.40;4.40;;;;;;;20.27;63.36;101002.25;5026223;27;97237;-67
2023/06/17 00:29:23;;;;;;;7.40;4.65;;;;;;;20.18;63.23;101007.41;5026341;27;98972;-67
2023/06/17 00:31:49;;;;;;;8.02;5.00;;;;;;;20.21;63.65;101001.81;5026668;27;98955;-66
2023/06/17 00:34:17;;;;;;;5.43;4.45;;;;;;;20.20;63.73;101006.34;5035318;27;97479;-66
2023/06/17 00:36:43;;;;;;;6.13;4.50;;;;;;;20.25;63.71;101003.31;5029529;27;96946;-67
2023/06/17 00:39:10;;;;;;;5.80;4.90;;;;;;;20.22;64.11;100993.66;5028399;27;99162;-67
2023/06/17 00:41:36;;;;;;;5.65;4.70;;;;;;;20.10;64.07;101005.25;5027705;27;98905;-67
2023/06/17 00:44:03;;;;;;;5.63;4.70;;;;;;;20.23;64.53;101003.41;5032186;27;96687;-67
2023/06/17 00:46:36;;;;;;;8.68;4.78;;;;;;;20.23;64.51;100995.38;5026999;27;96854;-67
2023/06/17 00:49:04;;;;;;;5.60;4.68;;;;;;;20.33;64.16;100994.75;5028596;27;99314;-67
2023/06/17 00:51:33;;;;;;;7.13;5.28;;;;;;;20.61;63.13;100995.28;5023979;27;98877;-67
2023/06/17 00:54:00;;;;;;;6.47;4.57;;;;;;;20.47;62.46;100989.25;5020240;27;97689;-68
2023/06/17 00:56:28;;;;;;;7.18;6.03;;;;;;;20.45;62.05;100994.72;5036309;27;97285;-67
2023/06/17 00:58:56;;;;;;;7.47;6.78;;;;;;;20.40;62.16;100985.28;5027753;27;101159;-67
2023/06/17 01:01:24;;;;;;;6.32;4.88;;;;;;;20.48;62.41;100988.28;5025250;27;97629;-68
2023/06/17 01:03:51;;;;;;;6.35;4.72;;;;;;;20.25;63.52;100988.06;5027006;27;96843;-67
2023/06/17 01:06:24;;;;;;;5.55;4.72;;;;;;;20.22;62.29;100987.41;5029792;27;96855;-66
2023/06/17 01:08:58;;;;;;;6.93;5.32;;;;;;;20.03;63.57;100982.50;5028088;27;99270;-67
2023/06/17 01:11:26;;;;;;;5.15;4.65;;;;;;;20.10;64.95;100981.09;5027448;27;99233;-66
2023/06/17 01:13:56;;;;;;;5.68;4.90;;;;;;;20.15;64.54;100980.81;5027138;27;98227;-67
2023/06/17 01:16:25;;;;;;;5.65;4.68;;;;;;;20.15;65.56;100992.38;5030093;27;96804;-68
2023/06/17 01:18:53;;;;;;;7.05;5.38;;;;;;;19.97;65.68;100998.19;5036801;27;98983;-67
2023/06/17 01:21:20;;;;;;;5.60;4.75;;;;;;;19.89;66.69;100990.66;5027522;27;98870;-67
2023/06/17 01:23:53;;;;;;;5.93;4.90;;;;;;;20.05;66.51;101001.19;5034877;27;97172;-67
2023/06/17 01:26:22;;;;;;;7.20;5.35;;;;;;;20.02;66.20;101001.41;5024058;27;96994;-69
2023/06/17 01:28:48;;;;;;;5.22;4.55;;;;;;;20.14;65.24;101008.59;5023436;27;99012;-67
2023/06/17 01:31:18;;;;;;;6.22;5.18;;;;;;;20.12;65.13;101014.06;5028669;27;98797;-67
2023/06/17 01:33:47;;;;;;;7.28;4.80;;;;;;;20.12;65.94;101007.84;5018875;27;98005;-68
2023/06/17 01:36:21;;;;;;;6.45;5.15;;;;;;;19.96;66.36;101012.56;5027992;27;96933;-68
2023/06/17 01:38:50;;;;;;;5.50;4.90;;;;;;;20.09;65.50;101005.34;5034173;27;99329;-68
2023/06/17 01:41:20;;;;;;;7.30;4.70;;;;;;;20.20;65.01;100998.28;5035212;27;99176;-68
2023/06/17 01:43:50;;;;;;;5.32;4.75;;;;;;;20.16;64.93;100994.09;5034861;27;96889;-68
2023/06/17 01:46:17;;;;;;;6.63;5.03;;;;;;;20.00;66.96;101000.66;5036082;27;100792;-67
2023/06/17 01:48:44;;;;;;;8.98;5.00;;;;;;;20.16;66.92;100999.44;5035789;27;100209;-67
2023/06/17 01:51:11;;;;;;;6.80;5.13;;;;;;;20.17;66.27;100989.59;5029485;27;98828;-68
2023/06/17 01:53:37;;;;;;;7.20;5.53;;;;;;;20.35;65.45;100990.13;5028808;27;97431;-68
2023/06/17 01:56:04;;;;;;;5.80;5.15;;;;;;;20.07;66.04;100996.59;5028595;27;98709;-67
2023/06/17 01:58:31;;;;;;;6.43;5.20;;;;;;;20.11;66.68;100990.88;5029229;27;98957;-68
2023/06/17 02:00:58;;;;;;;5.38;4.88;;;;;;;20.03;66.81;100992.38;5028466;27;99047;-68
2023/06/17 02:03:25;;;;;;;6.10;5.30;;;;;;;19.96;67.17;100991.97;5032597;27;96945;-67
2023/06/17 02:05:51;;;;;;;5.72;5.20;;;;;;;20.00;66.11;100993.47;5036539;27;97199;-67
2023/06/17 02:08:18;;;;;;;6.00;5.10;;;;;;;20.05;65.98;100985.94;5026830;27;101547;-67
2023/06/17 02:10:44;;;;;;;5.60;5.10;;;;;;;20.08;66.47;100988.44;5037052;27;99213;-67
2023/06/17 02:13:10;;;;;;;5.35;4.88;;;;;;;20.13;65.48;100986.28;5034839;27;96810;-68
2023/06/17 02:15:38;;;;;;;9.02;5.18;;;;;;;20.11;65.78;100977.47;5032811;27;97774;-67
2023/06/17 02:18:06;;;;;;;9.85;5.88;;;;;;;20.21;65.49;100977.69;5030949;27;99470;-67
2023/06/17 02:20:32;;;;;;;7.88;5.60;;;;;;;20.14;65.65;100988.00;5030799;27;99229;-67
2023/06/17 02:22:59;;;;;;;7.50;5.85;;;;;;;20.28;64.97;100989.69;5033889;27;96682;-67
2023/06/17 02:25:25;;;;;;;8.02;5.65;;;;;;;20.03;65.52;100987.88;5030828;27;96854;-67
2023/06/17 02:27:52;;;;;;;8.27;5.90;;;;;;;20.20;65.37;100984.88;5027022;27;99309;-66
2023/06/17 02:30:19;;;;;;;7.65;5.78;;;;;;;20.26;65.12;100980.88;5031016;27;99612;-67
2023/06/17 02:32:45;;;;;;;6.65;5.15;;;;;;;20.15;65.36;100981.63;5029008;27;96794;-67
2023/06/17 02:35:13;;;;;;;6.05;5.45;;;;;;;20.44;64.48;100976.03;5031032;27;96768;-67
2023/06/17 02:37:40;;;;;;;6.35;5.22;;;;;;;20.73;62.80;100968.53;5029722;27;99004;-67
2023/06/17 02:40:08;;;;;;;7.30;5.65;;;;;;;20.90;61.52;100971.66;5029610;27;98798;-68
2023/06/17 02:42:35;;;;;;;6.75;5.50;;;;;;;20.67;61.72;100972.53;5032393;27;96781;-68
2023/06/17 02:45:01;;;;;;;6.25;5.47;;;;;;;20.59;62.17;100974.91;5033724;27;96863;-68
2023/06/17 02:47:28;;;;;;;6.10;5.32;;;;;;;20.47;61.52;100978.50;5030943;27;98894;-69
2023/06/17 02:49:54;;;;;;;5.75;5.15;;;;;;;20.21;62.37;100973.16;5029888;27;99335;-65
2023/06/17 02:52:22;;;;;;;6.88;6.05;;;;;;;20.02;63.09;100975.44;5031757;27;96963;-67
2023/06/17 02:54:48;;;;;;;6.28;5.57;;;;;;;20.02;63.50;100975.44;5029178;27;97886;-67
2023/06/17 02:57:15;;;;;;;7.13;6.10;;;;;;;20.03;63.16;100977.16;5032780;27;99299;-66
2023/06/17 02:59:41;;;;;;;7.05;5.97;;;;;;;19.87;64.36;100980.06;5026464;27;98333;-67
2023/06/17 03:02:08;;;;;;;10.43;6.43;;;;;;;19.80;65.66;100980.59;5027666;27;97252;-67
2023/06/17 03:04:35;;;;;;;8.20;5.82;;;;;;;19.98;65.19;100973.09;5028199;27;96854;-66
2023/06/17 03:07:02;;;;;;;7.75;5.90;;;;;;;20.16;63.96;100972.63;5030609;27;99117;-67
2023/06/17 03:09:30;;;;;;;7.22;6.18;;;;;;;20.16;63.73;100969.94;5037376;27;97554;-67
2023/06/17 03:11:59;;;;;;;7.40;6.38;;;;;;;19.96;65.02;100981.22;5032034;27;96776;-67
2023/06/17 03:14:25;;;;;;;8.13;6.05;;;;;;;20.03;65.23;100977.16;5034114;27;96819;-68
2023/06/17 03:16:52;;;;;;;8.15;6.47;;;;;;;20.39;63.38;100978.19;5025435;27;99192;-67
2023/06/17 03:19:18;;;;;;;6.75;6.13;;;;;;;20.30;63.37;100975.16;5029888;27;98927;-67
2023/06/17 03:21:47;;;;;;;8.15;6.47;;;;;;;20.23;63.96;100973.03;5028300;27;97131;-67
2023/06/17 03:24:13;;;;;;;8.70;6.75;;;;;;;20.08;64.39;100968.78;5029660;27;96965;-67
2023/06/17 03:26:41;;;;;;;8.15;6.43;;;;;;;20.01;65.06;100975.56;5025808;27;98909;-68
2023/06/17 03:29:08;;;;;;;8.27;6.68;;;;;;;20.02;65.42;100974.59;5030956;27;97753;-67
2023/06/17 03:31:35;;;;;;;10.88;7.43;;;;;;;20.24;65.03;100975.63;5029436;27;96823;-67
2023/06/17 03:34:01;;;;;;;9.40;7.75;;;;;;;20.04;65.62;100973.50;5029027;27;97443;-66
2023/06/17 03:36:29;;;;;;;7.65;6.85;;;;;;;19.94;65.06;100967.09;5030932;27;99137;-66
2023/06/17 03:38:56;;;;;;;10.80;7.30;;;;;;;20.28;64.12;100971.72;5032336;27;98795;-66
2023/06/17 03:41:23;;;;;;;9.95;7.38;;;;;;;20.14;63.91;100969.22;5031958;27;96703;-68
2023/06/17 03:43:51;;;;;;;9.20;7.35;;;;;;;20.21;63.85;100967.81;5028935;27;97653;-68
2023/06/17 03:46:17;;;;;;;9.10;7.65;;;;;;;20.22;64.32;100977.53;5034977;27;98694;-67
2023/06/17 03:48:44;;;;;;;10.80;7.18;;;;;;;20.35;63.85;100969.50;5026689;27;99242;-67
2023/06/17 03:51:11;;;;;;;11.07;7.97;;;;;;;20.42;64.18;100977.97;5036347;27;96893;-66
2023/06/17 03:53:37;;;;;;;8.68;7.13;;;;;;;20.67;63.12;100972.53;5031068;27;96948;-68
2023/06/17 03:56:04;;;;;;;9.63;8.05;;;;;;;20.41;63.38;100976.28;5028206;27;99094;-67
2023/06/17 03:58:31;;;;;;;9.13;7.72;;;;;;;20.78;62.24;100975.28;5028604;27;99382;-67
2023/06/17 04:00:59;;;;;;;9.75;7.95;;;;;;;20.90;62.03;100984.25;5027808;27;97050;-67
2023/06/17 04:03:26;;;;;;;9.30;7.80;;;;;;;20.55;62.91;100990.38;5023344;27;99243;-67
2023/06/17 04:05:53;;;;;;;10.55;7.72;;;;;;;20.70;61.75;100983.03;5036719;27;99310;-67
2023/06/17 04:08:22;;;;;;;9.15;8.20;;;;;;;20.80;61.83;100983.22;5031190;27;98918;-67
2023/06/17 04:10:49;;;;;;;13.52;9.50;;;;;;;21.07;60.82;100991.88;5035034;27;96852;-67
2023/06/17 04:13:16;;;;;;;9.43;8.50;;;;;;;21.19;60.31;100992.84;5034469;27;96889;-68
2023/06/17 04:15:43;;;;;;;14.50;8.75;;;;;;;20.97;61.38;100989.03;5026942;27;98840;-68
2023/06/17 04:18:10;;;;;;;11.88;8.95;;;;;;;20.90;60.81;100989.59;5028460;27;99437;-67
2023/06/17 04:20:37;;;;;;;10.55;8.82;;;;;;;20.83;61.51;100981.16;5034293;27;96888;-67
2023/06/17 04:23:04;;;;;;;10.82;8.60;;;;;;;20.81;61.54;100975.03;5030037;27;96851;-67
2023/06/17 04:25:32;;;;;;;9.68;8.02;;;;;;;20.91;61.09;100985.97;5023115;27;99151;-67
2023/06/17 04:28:01;;;;;;;11.35;9.38;;;;;;;20.76;61.71;100990.63;5024996;27;98876;-67
2023/06/17 04:30:28;;;;;;;12.38;9.27;;;;;;;20.90;61.71;100990.47;5027344;27;98278;-67
2023/06/17 04:32:57;;;;;;;10.77;8.75;;;;;;;21.15;60.85;100994.00;5028243;27;97534;-67
2023/06/17 04:35:26;;;;;;;10.85;8.77;;;;;;;20.81;61.47;100988.47;5031501;27;98919;-67
2023/06/17 04:37:54;;;;;;;12.00;8.98;;;;;;;20.78;61.48;100994.06;5024277;27;98779;-68
2023/06/17 04:40:21;;;;;;;12.85;9.88;;;;;;;20.82;61.48;100995.53;5039371;27;97114;-67
2023/06/17 04:42:48;;;;;;;13.23;9.32;;;;;;;20.38;63.16;101000.63;5027850;27;97061;-67
2023/06/17 04:45:15;;;;;;;12.88;9.30;;;;;;;20.79;63.12;100993.09;5031648;27;98993;-68
2023/06/17 04:47:42;;;;;;;11.57;9.85;;;;;;;21.11;61.85;101003.28;5026716;27;98886;-68
2023/06/17 04:50:09;;;;;;;12.73;9.40;;;;;;;21.42;60.56;100995.47;5025383;27;98160;-67
2023/06/17 04:52:36;;;;;;;12.95;9.73;;;;;;;21.41;60.31;101006.34;5025844;27;97645;-68
2023/06/17 04:55:03;;;;;;;11.45;9.63;;;;;;;21.00;61.66;100999.53;5020751;27;99287;-68
2023/06/17 04:57:30;;;;;;;11.57;10.35;;;;;;;21.14;61.44;101003.88;5028564;27;99289;-67
2023/06/17 04:59:56;;;;;;;14.50;10.95;;;;;;;21.61;60.23;100999.44;5029687;27;96931;-68
2023/06/17 05:02:22;;;;;;;13.88;11.07;;;;;;;21.33;60.24;101006.09;5027925;27;97074;-68
2023/06/17 05:04:49;;;;;;;13.73;10.70;;;;;;;21.68;59.88;101004.22;5028150;27;99201;-69
2023/06/17 05:07:15;;;;;;;13.10;10.48;;;;;;;21.88;58.50;101005.34;5024147;27;98936;-68
2023/06/17 05:09:43;;;;;;;15.40;11.40;;;;;;;21.57;59.42;100997.97;5027823;27;97384;-68
2023/06/17 05:12:10;;;;;;;12.68;11.10;;;;;;;21.22;61.24;101000.66;5027241;27;97195;-68
2023/06/17 05:14:36;;;;;;;16.42;12.18;;;;;;;21.43;60.86;101001.72;5026525;27;99340;-68
2023/06/17 05:17:02;;;;;;;15.05;11.45;;;;;;;21.63;59.94;100997.47;5030063;27;99314;-67
2023/06/17 05:19:29;;;;;;;14.55;11.35;;;;;;;21.55;60.49;100997.22;5028715;27;97164;-68
2023/06/17 05:21:55;;;;;;;15.07;11.43;;;;;;;21.59;59.94;100993.34;5027958;27;98888;-67
2023/06/17 05:24:21;;;;;;;13.45;11.75;;;;;;;22.07;59.36;101000.25;5026660;27;101310;-67
2023/06/17 05:26:49;;;;;;;13.25;11.68;;;;;;;22.33;58.11;101005.38;5038932;27;98809;-67
2023/06/17 05:29:16;;;;;;;16.13;11.20;;;;;;;22.07;59.31;101005.63;5029204;27;96968;-70
2023/06/17 05:31:42;;;;;;;14.65;11.88;;;;;;;22.15;59.23;101003.19;5031110;27;97573;-67
2023/06/17 05:34:09;;;;;;;15.85;11.18;;;;;;;22.09;58.65;101005.53;5036533;27;101593;-67
2023/06/17 05:36:35;;;;;;;13.00;11.38;;;;;;;22.37;58.23;101004.19;5040810;27;99039;-67
2023/06/17 05:39:02;;;;;;;18.52;12.25;;;;;;;22.13;59.00;101010.53;5038911;27;96856;-67
2023/06/17 05:41:28;;;;;;;17.45;11.80;;;;;;;22.47;58.13;100997.91;5038530;27;97629;-68
2023/06/17 05:43:56;;;;;;;13.85;11.98;;;;;;;22.51;58.50;101004.75;5033966;27;99274;-67
2023/06/17 05:46:22;;;;;;;13.85;11.23;;;;;;;22.51;58.34;101012.00;5039288;27;97525;-67
2023/06/17 05:48:49;;;;;;;14.15;12.20;;;;;;;22.43;58.08;101009.06;5036298;27;97133;-67
2023/06/17 05:51:16;;;;;;;15.35;11.98;;;;;;;22.40;57.84;101007.47;5039084;27;96959;-68
2023/06/17 05:53:42;;;;;;;16.60;11.40;;;;;;;22.72;56.39;101003.97;5037392;27;100601;-67
2023/06/17 05:56:09;;;;;;;15.73;9.90;;;;;;;22.97;55.15;101007.25;5035157;27;98086;-67
2023/06/17 05:58:37;;;;;;;13.15;11.02;;;;;;;22.73;56.07;101014.66;5037574;27;98080;-67
2023/06/17 06:01:05;;;;;;;13.90;10.23;;;;;;;22.80;56.01;101017.72;5040581;27;97508;-67
2023/06/17 06:03:32;;;;;;;15.30;10.98;;;;;;;23.27;54.44;101013.78;5035532;27;99263;-68
2023/06/17 06:05:58;;;;;;;15.68;10.55;;;;;;;23.01;54.83;101022.19;5041236;27;98813;-68
2023/06/17 06:08:24;;;;;;;15.15;10.45;;;;;;;23.36;54.36;101021.94;5038862;27;97166;-68
2023/06/17 06:10:51;;;;;;;14.98;10.50;;;;;;;23.22;54.10;101021.41;5035261;27;96957;-67
2023/06/17 06:13:17;;;;;;;14.88;10.57;;;;;;;23.12;54.05;101018.59;5044646;27;101579;-68
2023/06/17 06:15:44;;;;;;;20.38;10.82;;;;;;;23.35;54.38;101022.06;5044424;27;97560;-67
2023/06/17 06:18:12;;;;;;;13.55;11.25;;;;;;;23.45;53.79;101017.59;5044004;27;97160;-67
2023/06/17 06:20:38;;;;;;;15.60;12.00;;;;;;;23.71;52.48;101021.66;5038634;27;96816;-68
2023/06/17 06:23:05;;;;;;;13.30;10.77;;;;;;;23.41;52.92;101017.00;5035013;27;99409;-70
2023/06/17 06:25:31;;;;;;;12.18;10.43;;;;;;;23.36;53.46;101027.34;5033064;27;98846;-68
2023/06/17 06:27:58;;;;;;;11.80;10.43;;;;;;;23.35;53.71;101025.63;5035152;27;96797;-67
2023/06/17 06:30:25;;;;;;;15.45;11.63;;;;;;;23.53;53.14;101030.47;5033265;27;96862;-68
2023/06/17 06:32:51;;;;;;;14.02;10.85;;;;;;;23.27;53.04;101024.56;5032770;27;100281;-67
2023/06/17 06:35:19;;;;;;;11.52;10.30;;;;;;;22.67;55.20;101032.16;5035562;27;98960;-68
2023/06/17 06:37:46;;;;;;;14.57;10.38;;;;;;;22.73;55.46;101030.84;5033172;27;99877;-67
2023/06/17 06:40:13;;;;;;;13.23;10.98;;;;;;;23.04;54.94;101034.53;5040706;27;96931;-67
2023/06/17 06:42:39;;;;;;;16.63;11.05;;;;;;;22.99;55.44;101031.38;5033634;27;98249;-68
2023/06/17 06:45:07;;;;;;;17.33;10.57;;;;;;;23.05;55.32;101030.88;5039780;27;99008;-67
2023/06/17 06:47:33;;;;;;;17.25;11.43;;;;;;;23.44;54.89;101032.91;5031916;27;97803;-68
2023/06/17 06:50:00;;;;;;;15.65;11.18;;;;;;;23.26;54.25;101026.38;5038485;27;96861;-67
2023/06/17 06:52:27;;;;;;;18.08;10.57;;;;;;;23.64;52.74;101039.34;5032773;27;99309;-68
2023/06/17 06:54:54;;;;;;;14.38;10.13;;;;;;;23.72;52.61;101030.59;5039144;27;98847;-68
2023/06/17 06:57:21;;;;;;;12.85;9.95;;;;;;;23.94;51.90;101033.16;5038916;27;96813;-67
2023/06/17 06:59:48;;;;;;;15.95;10.38;;;;;;;24.28;51.55;101035.66;5039214;27;96826;-67
2023/06/17 07:02:14;;;;;;;12.57;10.27;;;;;;;24.16;50.95;101035.69;5031265;27;101195;-68
2023/06/17 07:04:42;;;;;;;13.68;11.00;;;;;;;24.20;50.88;101037.19;5036064;27;99618;-68
2023/06/17 07:07:08;;;;;;;15.95;11.18;;;;;;;23.99;52.04;101038.16;5034341;27;96753;-68
2023/06/17 07:09:36;;;;;;;11.63;10.15;;;;;;;23.93;51.40;101044.09;5033916;27;96828;-68
2023/06/17 07:12:02;;;;;;;13.35;10.02;;;;;;;23.80;51.80;101037.06;5030896;27;99073;-67
2023/06/17 07:14:29;;;;;;;13.45;10.20;;;;;;;24.33;50.69;101038.78;5030898;27;99284;-68
2023/06/17 07:16:55;;;;;;;14.52;10.70;;;;;;;23.58;52.33;101036.31;5037324;27;96818;-68
2023/06/17 07:19:22;;;;;;;12.52;10.60;;;;;;;23.94;52.19;101037.72;5031601;27;97678;-67
2023/06/17 07:21:49;;;;;;;12.95;11.20;;;;;;;24.39;51.07;101031.00;5037448;27;100956;-67
2023/06/17 07:24:16;;;;;;;18.50;11.35;;;;;;;24.19;52.57;101045.41;5038871;27;98905;-67
2023/06/17 07:26:43;;;;;;;13.98;10.70;;;;;;;24.05;52.82;101043.88;5031736;27;96906;-68
2023/06/17 07:29:10;;;;;;;19.48;11.63;;;;;;;24.30;51.39;101039.03;5039207;27;97006;-67
2023/06/17 07:31:36;;;;;;;13.77;11.55;;;;;;;23.93;52.51;101049.50;5029882;27;99272;-67
2023/06/17 07:34:03;;;;;;;13.10;11.30;;;;;;;24.25;51.81;101038.59;5035537;27;98638;-68
2023/06/17 07:36:29;;;;;;;11.80;10.52;;;;;;;24.58;50.74;101039.16;5036276;27;97087;-68
2023/06/17 07:38:57;;;;;;;13.07;11.35;;;;;;;24.48;50.51;101035.56;5035617;27;96968;-68
2023/06/17 07:41:24;;;;;;;16.80;13.48;;;;;;;24.52;50.00;101041.56;5034760;27;99494;-68
2023/06/17 07:43:52;;;;;;;16.60;12.15;;;;;;;24.71;49.37;101038.06;5034748;27;97638;-67
2023/06/17 07:46:18;;;;;;;14.05;12.05;;;;;;;24.97;49.60;101040.16;5034389;27;96749;-67
2023/06/17 07:48:45;;;;;;;12.52;10.82;;;;;;;25.09;49.21;101042.72;5035631;27;97115;-67
2023/06/17 07:51:11;;;;;;;17.83;11.25;;;;;;;25.44;48.88;101039.47;5029731;27;97854;-67
2023/06/17 07:53:38;;;;;;;18.15;12.38;;;;;;;25.74;48.15;101040.19;5036972;27;98809;-68
2023/06/17 07:56:05;;;;;;;14.05;11.60;;;;;;;25.40;48.01;101042.44;5035543;27;100944;-67
2023/06/17 07:58:32;;;;;;;16.05;11.10;;;;;;;25.52;48.09;101042.31;5029711;27;96893;-67
2023/06/17 08:01:00;;;;;;;14.63;11.98;;;;;;;25.09;48.94;101037.31;5037313;27;99237;-67
2023/06/17 08:03:27;;;;;;;19.23;11.40;;;;;;;25.36;48.36;101041.03;5034455;27;97692;-67
2023/06/17 08:05:53;;;;;;;14.70;11.55;;;;;;;25.31;47.82;101031.66;5038465;27;96829;-67
2023/06/17 08:08:20;;;;;;;14.13;11.02;;;;;;;25.60;47.91;101029.78;5030170;27;97147;-67
2023/06/17 08:10:46;;;;;;;15.60;11.27;;;;;;;25.99;47.35;101040.56;5033268;27;99438;-67
2023/06/17 08:13:13;;;;;;;13.93;10.80;;;;;;;26.19;46.56;101036.78;5032545;27;99014;-68
2023/06/17 08:15:39;;;;;;;14.10;12.45;;;;;;;26.74;44.78;101040.41;5031668;27;97215;-67
2023/06/17 08:18:07;;;;;;;13.93;12.40;;;;;;;26.90;44.25;101046.06;5032722;27;98428;-68
2023/06/17 08:20:33;;;;;;;13.75;11.80;;;;;;;27.09;43.11;101033.38;5027908;27;98964;-67
2023/06/17 08:23:00;;;;;;;14.52;11.43;;;;;;;26.79;43.61;101039.94;5038258;27;97538;-67
2023/06/17 08:25:27;;;;;;;13.20;11.48;;;;;;;26.54;44.11;101039.66;5031141;27;96666;-68
2023/06/17 08:27:53;;;;;;;13.77;11.20;;;;;;;26.41;45.13;101036.44;5037435;27;96801;-67
2023/06/17 08:30:20;;;;;;;13.80;11.48;;;;;;;25.89;46.11;101037.88;5035281;27;100470;-67
2023/06/17 08:32:47;;;;;;;13.30;11.90;;;;;;;25.83;46.57;101041.16;5035698;27;98881;-67
2023/06/17 08:35:15;;;;;;;15.50;11.98;;;;;;;25.74;46.41;101040.19;5023192;27;96929;-67
2023/06/17 08:38:02;;;;;;;18.02;11.48;;;;;;;25.59;47.10;101043.50;5034698;27;96903;-68
2023/06/17 08:40:29;;;;;;;14.18;12.65;;;;;;;26.05;45.93;101048.09;5035973;27;97894;-68
2023/06/17 08:43:01;;;;;;;14.48;11.95;;;;;;;26.22;45.06;101046.47;5036127;27;99375;-67
2023/06/17 08:45:33;;;;;;;13.93;11.55;;;;;;;26.22;45.87;101041.06;5032990;27;96998;-70
2023/06/17 08:48:01;;;;;;;18.33;12.00;;;;;;;26.74;45.01;101044.97;5033273;27;97953;-67
2023/06/17 08:50:29;;;;;;;15.27;12.13;;;;;;;26.19;45.33;101053.88;5033492;27;99146;-67
2023/06/17 08:52:56;;;;;;;13.13;10.88;;;;;;;26.09;45.94;101041.38;5032934;27;98858;-63
2023/06/17 08:55:22;;;;;;;15.52;11.48;;;;;;;25.86;46.62;101035.47;5036307;27;96969;-62
2023/06/17 08:57:51;;;;;;;14.80;11.40;;;;;;;25.64;46.93;101042.06;5034978;27;96986;-62
2023/06/17 09:00:18;;;;;;;11.38;10.18;;;;;;;26.15;45.65;101048.91;5028364;27;98965;-62
2023/06/17 09:02:46;;;;;;;12.25;10.95;;;;;;;26.06;45.60;101045.22;5032036;27;98798;-63
2023/06/17 09:05:12;;;;;;;12.45;10.75;;;;;;;26.10;45.97;101043.09;5030875;27;96760;-62
2023/06/17 09:07:40;;;;;;;12.73;10.77;;;;;;;26.51;45.15;101052.69;5034077;27;96907;-63
2023/06/17 09:10:08;;;;;;;13.57;10.55;;;;;;;26.98;44.59;101051.56;5029585;27;98919;-63
2023/06/17 09:12:39;;;;;;;12.68;10.15;;;;;;;27.18;43.80;101052.28;5031984;27;99247;-63
2023/06/17 09:15:08;;;;;;;14.27;9.65;;;;;;;27.32;42.94;101042.75;5032873;27;97920;-62
2023/06/17 09:17:40;;;;;;;13.32;9.65;;;;;;;27.09;43.21;101053.22;5034511;27;98448;-62
2023/06/17 09:20:11;;;;;;;11.15;9.90;;;;;;;27.39;43.23;101046.56;5029785;27;99594;-62
2023/06/17 09:22:41;;;;;;;12.15;10.35;;;;;;;26.90;43.30;101056.91;5033143;27;101612;-63
2023/06/17 09:25:11;;;;;;;11.55;9.85;;;;;;;26.48;44.81;101053.81;5034424;27;96695;-62
2023/06/17 09:27:45;;;;;;;12.73;9.50;;;;;;;26.53;44.90;101056.06;5033821;27;96850;-62
2023/06/17 09:30:13;;;;;;;11.55;9.73;;;;;;;26.33;45.98;101052.59;5034473;27;99006;-62
2023/06/17 09:32:40;;;;;;;12.57;9.77;;;;;;;26.21;46.41;101056.47;5035512;27;99541;-63
2023/06/17 09:35:11;;;;;;;10.80;8.95;;;;;;;26.01;46.76;101052.09;5027792;27;96818;-63
2023/06/17 09:37:43;;;;;;;14.35;10.13;;;;;;;26.28;45.96;101057.59;5034013;27;97316;-62
2023/06/17 09:40:13;;;;;;;12.85;10.73;;;;;;;26.15;45.60;101052.47;5031405;27;102570;-62
2023/06/17 09:42:40;;;;;;;12.85;10.02;;;;;;;25.62;46.42;101046.75;5030569;27;97702;-63
2023/06/17 09:45:12;;;;;;;13.05;10.15;;;;;;;25.77;46.56;101055.28;5032819;27;96821;-63
2023/06/17 09:47:39;;;;;;;11.80;10.00;;;;;;;26.06;46.82;101052.50;5031041;27;97439;-59
2023/06/17 09:50:09;;;;;;;12.98;9.85;;;;;;;26.21;46.78;101053.75;5032255;27;99079;-61
2023/06/17 09:52:37;;;;;;;13.18;10.25;;;;;;;26.01;46.38;101043.97;5033644;27;100474;-62
2023/06/17 09:55:06;;;;;;;13.73;9.88;;;;;;;26.51;45.86;101056.25;5027721;27;97633;-62
2023/06/17 09:57:34;;;;;;;11.02;9.65;;;;;;;26.74;45.28;101036.84;5030974;27;97111;-61
2023/06/17 10:00:00;;;;;;;12.15;9.68;;;;;;;26.67;45.13;101042.03;5038664;27;99581;-62
2023/06/17 10:02:27;;;;;;;11.68;8.95;;;;;;;26.57;44.77;101044.81;5037013;27;99712;-62
2023/06/17 10:04:54;;;;;;;11.20;8.73;;;;;;;26.96;44.08;101044.59;5033382;27;97330;-61
2023/06/17 10:07:24;;;;;;;17.23;9.07;;;;;;;26.82;44.36;101050.50;5034148;27;100299;-62
2023/06/17 10:09:57;;;;;;;11.65;8.95;;;;;;;26.95;44.56;101048.31;5031090;27;99434;-64
2023/06/17 10:12:26;;;;;;;10.45;8.18;;;;;;;27.23;42.99;101043.69;5039184;27;98893;-62
2023/06/17 10:14:53;;;;;;;9.70;8.70;;;;;;;27.15;43.02;101047.19;5033297;27;96872;-62
2023/06/17 10:17:23;;;;;;;11.60;8.88;;;;;;;27.27;42.89;101039.66;5037914;27;96985;-62
2023/06/17 10:19:50;;;;;;;20.88;8.57;;;;;;;27.17;43.17;101037.03;5032523;27;98292;-62
2023/06/17 10:22:20;;;;;;;11.23;8.25;;;;;;;27.43;42.70;101034.41;5037571;27;99472;-63
2023/06/17 10:24:48;;;;;;;7.35;6.65;;;;;;;27.29;41.66;101037.66;5031222;27;96800;-67
2023/06/17 10:27:15;;;;;;;8.63;6.93;;;;;;;27.07;41.48;101035.38;5040499;27;97142;-68
2023/06/17 10:29:43;;;;;;;10.05;6.75;;;;;;;26.86;42.10;101051.91;5033713;27;98231;-68
2023/06/17 10:32:18;;;;;;;8.77;7.65;;;;;;;26.79;42.55;101046.22;5036216;27;98765;-67
2023/06/17 10:35:08;;;;;;;8.43;7.28;;;;;;;26.76;42.33;101040.28;5032452;27;96894;-67
2023/06/17 10:37:39;;;;;;;11.40;7.75;;;;;;;27.15;41.84;101041.75;5034256;27;96799;-68
2023/06/17 10:40:26;;;;;;;8.95;7.25;;;;;;;27.54;41.61;101044.19;5038479;27;99506;-68
2023/06/17 10:43:16;;;;;;;11.13;8.10;;;;;;;27.72;40.51;101034.13;5034319;27;99574;-69
2023/06/17 10:45:50;;;;;;;8.52;7.63;;;;;;;27.81;40.47;101033.22;5030566;27;96976;-69
2023/06/17 10:48:21;;;;;;;10.45;7.20;;;;;;;28.27;40.14;101034.72;5030932;27;96848;-68
2023/06/17 10:50:52;;;;;;;8.88;7.35;;;;;;;28.41;39.69;101036.81;5029901;27;100777;-69
2023/06/17 10:53:25;;;;;;;8.90;8.00;;;;;;;28.83;38.14;101036.84;5026375;27;98829;-68
2023/06/17 10:55:51;;;;;;;13.25;7.63;;;;;;;28.91;38.37;101042.31;5032870;27;96731;-68
2023/06/17 10:58:18;;;;;;;8.13;7.00;;;;;;;29.06;37.84;101034.34;5030974;27;99674;-69
2023/06/17 11:00:44;;;;;;;14.65;7.32;;;;;;;28.68;38.75;101033.03;5038823;27;99416;-67
2023/06/17 11:03:15;;;;;;;8.15;7.38;;;;;;;28.40;39.10;101026.13;5038132;27;98900;-68
2023/06/17 11:05:41;;;;;;;8.63;6.55;;;;;;;28.36;39.21;101022.84;5034678;27;97418;-68
2023/06/17 11:08:08;;;;;;;10.30;7.40;;;;;;;28.28;39.11;101011.13;5030803;27;96937;-68
2023/06/17 11:10:34;;;;;;;8.05;7.20;;;;;;;28.42;38.66;101008.59;5031725;27;99249;-62
2023/06/17 11:13:00;;;;;;;7.95;7.15;;;;;;;28.28;39.62;101005.69;5035973;27;97507;-63
2023/06/17 11:15:28;;;;;;;11.30;7.80;;;;;;;28.39;39.13;101016.25;5031259;27;97033;-64
2023/06/17 11:18:02;;;;;;;9.02;7.38;;;;;;;28.19;39.32;101018.38;5031051;27;96835;-64
2023/06/17 11:20:33;;;;;;;9.02;7.45;;;;;;;27.96;39.70;101026.16;5040625;27;98014;-65